sensor_id;sensor_type;location;lat;lon;timestamp;pressure;altitude;pressure_sealevel;temperature;humidity
53484;BME280;75581;50.088;19.966;2024-03-02T00:01:01;98631.48;;;7.24;75.82
53484;BME280;75581;50.088;19.966;2024-03-02T00:03:44;98634.48;;;7.23;75.84
53484;BME280;75581;50.088;19.966;2024-03-02T00:06:13;98632.33;;;7.22;75.87
53484;BME280;75581;50.088;19.966;2024-03-02T00:08:42;98636.06;;;7.21;75.90
53484;BME280;75581;50.088;19.966;2024-03-02T00:11:11;98640.04;;;7.20;76.00
53484;BME280;75581;50.088;19.966;2024-03-02T00:13:42;98635.15;;;7.19;75.95
53484;BME280;75581;50.088;19.966;2024-03-02T00:16:12;98641.04;;;7.18;76.01
53484;BME280;75581;50.088;19.966;2024-03-02T00:18:41;98638.90;;;7.18;75.98
53484;BME280;75581;50.088;19.966;2024-03-02T00:21:11;98632.65;;;7.17;75.95
53484;BME280;75581;50.088;19.966;2024-03-02T00:23:43;98643.23;;;7.16;76.07
53484;BME280;75581;50.088;19.966;2024-03-02T00:26:13;98644.70;;;7.14;75.93
53484;BME280;75581;50.088;19.966;2024-03-02T00:28:43;98641.80;;;7.13;75.97
53484;BME280;75581;50.088;19.966;2024-03-02T00:31:13;98634.98;;;7.12;75.98
53484;BME280;75581;50.088;19.966;2024-03-02T00:33:44;98637.13;;;7.12;76.07
53484;BME280;75581;50.088;19.966;2024-03-02T00:36:16;98641.83;;;7.10;75.99
53484;BME280;75581;50.088;19.966;2024-03-02T00:38:51;98643.15;;;7.09;75.98
53484;BME280;75581;50.088;19.966;2024-03-02T00:41:24;98645.08;;;7.07;76.08
53484;BME280;75581;50.088;19.966;2024-03-02T00:44:06;98645.33;;;7.06;76.06
53484;BME280;75581;50.088;19.966;2024-03-02T00:46:36;98642.22;;;7.06;76.07
53484;BME280;75581;50.088;19.966;2024-03-02T00:49:23;98638.77;;;7.04;76.12
53484;BME280;75581;50.088;19.966;2024-03-02T00:51:53;98635.40;;;7.00;76.13
53484;BME280;75581;50.088;19.966;2024-03-02T00:54:26;98635.38;;;6.97;76.14
53484;BME280;75581;50.088;19.966;2024-03-02T00:56:57;98629.50;;;6.94;76.17
53484;BME280;75581;50.088;19.966;2024-03-02T00:59:26;98627.23;;;6.91;76.24
53484;BME280;75581;50.088;19.966;2024-03-02T01:01:55;98625.55;;;6.91;76.31
53484;BME280;75581;50.088;19.966;2024-03-02T01:04:27;98624.33;;;6.91;76.48
53484;BME280;75581;50.088;19.966;2024-03-02T01:06:56;98621.59;;;6.91;76.44
53484;BME280;75581;50.088;19.966;2024-03-02T01:09:27;98618.60;;;6.92;76.40
53484;BME280;75581;50.088;19.966;2024-03-02T01:11:56;98609.64;;;6.92;76.50
53484;BME280;75581;50.088;19.966;2024-03-02T01:14:25;98613.61;;;6.90;76.49
53484;BME280;75581;50.088;19.966;2024-03-02T01:16:54;98612.14;;;6.90;76.45
53484;BME280;75581;50.088;19.966;2024-03-02T01:19:23;98606.11;;;6.89;76.53
53484;BME280;75581;50.088;19.966;2024-03-02T01:21:52;98600.67;;;6.90;76.47
53484;BME280;75581;50.088;19.966;2024-03-02T01:24:20;98601.95;;;6.90;76.50
53484;BME280;75581;50.088;19.966;2024-03-02T01:26:50;98598.93;;;6.89;76.51
53484;BME280;75581;50.088;19.966;2024-03-02T01:29:19;98602.58;;;6.88;76.56
53484;BME280;75581;50.088;19.966;2024-03-02T01:31:48;98602.48;;;6.88;76.65
53484;BME280;75581;50.088;19.966;2024-03-02T01:34:16;98597.75;;;6.88;76.63
53484;BME280;75581;50.088;19.966;2024-03-02T01:36:45;98596.77;;;6.86;76.58
53484;BME280;75581;50.088;19.966;2024-03-02T01:39:15;98590.91;;;6.85;76.56
53484;BME280;75581;50.088;19.966;2024-03-02T01:41:43;98588.29;;;6.85;76.63
53484;BME280;75581;50.088;19.966;2024-03-02T01:44:12;98583.98;;;6.84;76.72
53484;BME280;75581;50.088;19.966;2024-03-02T01:46:41;98574.45;;;6.85;76.79
53484;BME280;75581;50.088;19.966;2024-03-02T01:49:10;98574.67;;;6.86;76.71
53484;BME280;75581;50.088;19.966;2024-03-02T01:51:39;98570.54;;;6.86;76.77
53484;BME280;75581;50.088;19.966;2024-03-02T01:54:08;98569.52;;;6.84;76.67
53484;BME280;75581;50.088;19.966;2024-03-02T01:56:37;98578.05;;;6.85;76.74
53484;BME280;75581;50.088;19.966;2024-03-02T01:59:06;98581.90;;;6.83;76.70
53484;BME280;75581;50.088;19.966;2024-03-02T02:01:35;98583.45;;;6.83;76.78
53484;BME280;75581;50.088;19.966;2024-03-02T02:04:04;98584.14;;;6.83;76.75
53484;BME280;75581;50.088;19.966;2024-03-02T02:06:34;98588.02;;;6.85;76.83
53484;BME280;75581;50.088;19.966;2024-03-02T02:09:03;98584.37;;;6.86;76.82
53484;BME280;75581;50.088;19.966;2024-03-02T02:11:32;98580.02;;;6.84;76.66
53484;BME280;75581;50.088;19.966;2024-03-02T02:14:01;98584.19;;;6.82;76.62
53484;BME280;75581;50.088;19.966;2024-03-02T02:16:30;98590.19;;;6.81;76.69
53484;BME280;75581;50.088;19.966;2024-03-02T02:18:59;98587.27;;;6.80;76.74
53484;BME280;75581;50.088;19.966;2024-03-02T02:21:28;98592.19;;;6.78;76.69
53484;BME280;75581;50.088;19.966;2024-03-02T02:23:57;98587.64;;;6.77;76.68
53484;BME280;75581;50.088;19.966;2024-03-02T02:26:26;98581.65;;;6.75;76.75
53484;BME280;75581;50.088;19.966;2024-03-02T02:28:55;98582.66;;;6.73;76.62
53484;BME280;75581;50.088;19.966;2024-03-02T02:31:23;98576.68;;;6.71;76.65
53484;BME280;75581;50.088;19.966;2024-03-02T02:33:53;98577.09;;;6.68;76.60
53484;BME280;75581;50.088;19.966;2024-03-02T02:36:22;98583.70;;;6.66;76.73
53484;BME280;75581;50.088;19.966;2024-03-02T02:38:51;98582.20;;;6.64;76.64
53484;BME280;75581;50.088;19.966;2024-03-02T02:41:21;98582.23;;;6.61;76.64
53484;BME280;75581;50.088;19.966;2024-03-02T02:43:50;98578.11;;;6.57;76.61
53484;BME280;75581;50.088;19.966;2024-03-02T02:46:19;98576.74;;;6.55;76.73
53484;BME280;75581;50.088;19.966;2024-03-02T02:48:48;98573.29;;;6.52;76.82
53484;BME280;75581;50.088;19.966;2024-03-02T02:51:17;98575.20;;;6.50;76.92
53484;BME280;75581;50.088;19.966;2024-03-02T02:53:47;98570.95;;;6.49;76.90
53484;BME280;75581;50.088;19.966;2024-03-02T02:56:15;98567.70;;;6.46;76.91
53484;BME280;75581;50.088;19.966;2024-03-02T02:58:44;98568.98;;;6.44;76.88
53484;BME280;75581;50.088;19.966;2024-03-02T03:01:15;98570.46;;;6.44;77.01
53484;BME280;75581;50.088;19.966;2024-03-02T03:03:46;98574.80;;;6.43;77.01
53484;BME280;75581;50.088;19.966;2024-03-02T03:06:16;98570.77;;;6.41;77.04
53484;BME280;75581;50.088;19.966;2024-03-02T03:08:46;98567.38;;;6.40;76.98
53484;BME280;75581;50.088;19.966;2024-03-02T03:11:15;98569.77;;;6.39;76.90
53484;BME280;75581;50.088;19.966;2024-03-02T03:13:43;98570.76;;;6.36;77.06
53484;BME280;75581;50.088;19.966;2024-03-02T03:16:14;98572.84;;;6.34;77.05
53484;BME280;75581;50.088;19.966;2024-03-02T03:18:43;98579.08;;;6.32;77.10
53484;BME280;75581;50.088;19.966;2024-03-02T03:21:12;98580.36;;;6.30;77.18
53484;BME280;75581;50.088;19.966;2024-03-02T03:23:40;98575.20;;;6.29;77.23
53484;BME280;75581;50.088;19.966;2024-03-02T03:26:09;98577.44;;;6.29;77.26
53484;BME280;75581;50.088;19.966;2024-03-02T03:28:38;98579.79;;;6.28;77.21
53484;BME280;75581;50.088;19.966;2024-03-02T03:31:07;98577.52;;;6.26;77.21
53484;BME280;75581;50.088;19.966;2024-03-02T03:33:37;98578.73;;;6.25;77.27
53484;BME280;75581;50.088;19.966;2024-03-02T03:36:06;98574.92;;;6.24;77.27
53484;BME280;75581;50.088;19.966;2024-03-02T03:38:35;98574.23;;;6.24;77.24
53484;BME280;75581;50.088;19.966;2024-03-02T03:41:05;98572.88;;;6.23;77.33
53484;BME280;75581;50.088;19.966;2024-03-02T03:43:35;98566.13;;;6.23;77.25
53484;BME280;75581;50.088;19.966;2024-03-02T03:46:04;98559.45;;;6.21;77.29
53484;BME280;75581;50.088;19.966;2024-03-02T03:48:33;98562.37;;;6.17;77.25
53484;BME280;75581;50.088;19.966;2024-03-02T03:51:03;98569.15;;;6.15;77.32
53484;BME280;75581;50.088;19.966;2024-03-02T03:53:32;98566.55;;;6.13;77.38
53484;BME280;75581;50.088;19.966;2024-03-02T03:56:01;98562.88;;;6.10;77.37
53484;BME280;75581;50.088;19.966;2024-03-02T03:58:30;98555.98;;;6.08;77.41
53484;BME280;75581;50.088;19.966;2024-03-02T04:00:59;98555.11;;;6.06;77.40
53484;BME280;75581;50.088;19.966;2024-03-02T04:03:29;98559.62;;;6.03;77.49
53484;BME280;75581;50.088;19.966;2024-03-02T04:05:59;98559.29;;;6.01;77.53
53484;BME280;75581;50.088;19.966;2024-03-02T04:08:28;98560.18;;;6.00;77.54
53484;BME280;75581;50.088;19.966;2024-03-02T04:10:57;98563.50;;;5.99;77.61
53484;BME280;75581;50.088;19.966;2024-03-02T04:13:26;98563.13;;;5.99;77.68
53484;BME280;75581;50.088;19.966;2024-03-02T04:15:55;98558.67;;;5.99;77.65
53484;BME280;75581;50.088;19.966;2024-03-02T04:18:24;98561.98;;;5.99;77.74
53484;BME280;75581;50.088;19.966;2024-03-02T04:20:53;98563.05;;;5.99;77.67
53484;BME280;75581;50.088;19.966;2024-03-02T04:23:23;98564.30;;;6.00;77.89
53484;BME280;75581;50.088;19.966;2024-03-02T04:25:52;98563.35;;;6.01;77.88
53484;BME280;75581;50.088;19.966;2024-03-02T04:28:21;98564.16;;;6.03;77.76
53484;BME280;75581;50.088;19.966;2024-03-02T04:30:49;98572.79;;;6.02;77.77
53484;BME280;75581;50.088;19.966;2024-03-02T04:33:18;98577.94;;;6.02;77.68
53484;BME280;75581;50.088;19.966;2024-03-02T04:35:47;98579.00;;;6.02;77.67
53484;BME280;75581;50.088;19.966;2024-03-02T04:38:16;98572.66;;;6.00;77.68
53484;BME280;75581;50.088;19.966;2024-03-02T04:40:45;98574.83;;;5.98;77.68
53484;BME280;75581;50.088;19.966;2024-03-02T04:43:14;98573.13;;;5.96;77.78
53484;BME280;75581;50.088;19.966;2024-03-02T04:45:44;98566.15;;;5.95;77.77
53484;BME280;75581;50.088;19.966;2024-03-02T04:48:13;98562.20;;;5.92;77.73
53484;BME280;75581;50.088;19.966;2024-03-02T04:50:43;98558.72;;;5.92;77.90
53484;BME280;75581;50.088;19.966;2024-03-02T04:53:12;98554.02;;;5.91;77.84
53484;BME280;75581;50.088;19.966;2024-03-02T04:55:41;98560.04;;;5.90;77.87
53484;BME280;75581;50.088;19.966;2024-03-02T04:58:10;98558.81;;;5.90;77.93
53484;BME280;75581;50.088;19.966;2024-03-02T05:00:38;98559.95;;;5.91;77.93
53484;BME280;75581;50.088;19.966;2024-03-02T05:03:08;98555.73;;;5.92;78.01
53484;BME280;75581;50.088;19.966;2024-03-02T05:05:37;98559.73;;;5.92;77.98
53484;BME280;75581;50.088;19.966;2024-03-02T05:08:07;98572.30;;;5.93;78.07
53484;BME280;75581;50.088;19.966;2024-03-02T05:10:36;98574.70;;;5.93;78.00
53484;BME280;75581;50.088;19.966;2024-03-02T05:13:05;98577.16;;;5.94;77.94
53484;BME280;75581;50.088;19.966;2024-03-02T05:15:34;98579.02;;;5.95;78.02
53484;BME280;75581;50.088;19.966;2024-03-02T05:18:04;98581.42;;;5.95;77.88
53484;BME280;75581;50.088;19.966;2024-03-02T05:20:34;98588.45;;;5.96;77.92
53484;BME280;75581;50.088;19.966;2024-03-02T05:23:02;98592.23;;;5.97;77.90
53484;BME280;75581;50.088;19.966;2024-03-02T05:25:31;98594.90;;;5.97;77.86
53484;BME280;75581;50.088;19.966;2024-03-02T05:28:00;98597.31;;;5.97;77.87
53484;BME280;75581;50.088;19.966;2024-03-02T05:30:29;98604.27;;;5.98;78.01
53484;BME280;75581;50.088;19.966;2024-03-02T05:32:58;98605.06;;;5.99;78.06
53484;BME280;75581;50.088;19.966;2024-03-02T05:35:26;98605.40;;;6.02;78.06
53484;BME280;75581;50.088;19.966;2024-03-02T05:37:55;98611.86;;;6.05;78.20
53484;BME280;75581;50.088;19.966;2024-03-02T05:40:24;98615.70;;;6.07;78.16
53484;BME280;75581;50.088;19.966;2024-03-02T05:42:53;98616.67;;;6.11;78.17
53484;BME280;75581;50.088;19.966;2024-03-02T05:45:22;98614.30;;;6.14;78.09
53484;BME280;75581;50.088;19.966;2024-03-02T05:47:51;98614.52;;;6.16;78.10
53484;BME280;75581;50.088;19.966;2024-03-02T05:50:19;98614.11;;;6.17;78.03
53484;BME280;75581;50.088;19.966;2024-03-02T05:52:48;98616.74;;;6.19;77.99
53484;BME280;75581;50.088;19.966;2024-03-02T05:55:17;98618.91;;;6.20;78.01
53484;BME280;75581;50.088;19.966;2024-03-02T05:57:46;98609.61;;;6.21;78.05
53484;BME280;75581;50.088;19.966;2024-03-02T06:00:40;98609.23;;;6.22;78.06
53484;BME280;75581;50.088;19.966;2024-03-02T06:03:09;98602.92;;;6.22;78.03
53484;BME280;75581;50.088;19.966;2024-03-02T06:05:39;98601.33;;;6.23;78.02
53484;BME280;75581;50.088;19.966;2024-03-02T06:08:09;98607.48;;;6.23;77.96
53484;BME280;75581;50.088;19.966;2024-03-02T06:10:38;98607.28;;;6.23;78.01
53484;BME280;75581;50.088;19.966;2024-03-02T06:13:07;98620.55;;;6.23;78.00
53484;BME280;75581;50.088;19.966;2024-03-02T06:15:36;98623.73;;;6.24;78.10
53484;BME280;75581;50.088;19.966;2024-03-02T06:18:05;98623.13;;;6.27;78.21
53484;BME280;75581;50.088;19.966;2024-03-02T06:20:35;98629.05;;;6.30;78.25
53484;BME280;75581;50.088;19.966;2024-03-02T06:23:05;98631.61;;;6.34;78.40
53484;BME280;75581;50.088;19.966;2024-03-02T06:25:34;98632.00;;;6.40;78.43
53484;BME280;75581;50.088;19.966;2024-03-02T06:28:03;98629.48;;;6.45;78.40
53484;BME280;75581;50.088;19.966;2024-03-02T06:30:32;98633.37;;;6.52;78.35
53484;BME280;75581;50.088;19.966;2024-03-02T06:33:01;98630.85;;;6.56;78.30
53484;BME280;75581;50.088;19.966;2024-03-02T06:35:32;98627.61;;;6.60;78.20
53484;BME280;75581;50.088;19.966;2024-03-02T06:38:01;98617.21;;;6.64;78.20
53484;BME280;75581;50.088;19.966;2024-03-02T06:40:31;98613.96;;;6.68;78.15
53484;BME280;75581;50.088;19.966;2024-03-02T06:42:59;98617.83;;;6.72;78.17
53484;BME280;75581;50.088;19.966;2024-03-02T06:45:29;98621.29;;;6.75;78.15
53484;BME280;75581;50.088;19.966;2024-03-02T06:47:59;98622.27;;;6.78;78.11
53484;BME280;75581;50.088;19.966;2024-03-02T06:50:28;98622.77;;;6.80;78.02
53484;BME280;75581;50.088;19.966;2024-03-02T06:52:58;98626.17;;;6.82;78.04
53484;BME280;75581;50.088;19.966;2024-03-02T06:55:29;98627.73;;;6.84;77.97
53484;BME280;75581;50.088;19.966;2024-03-02T06:57:58;98622.13;;;6.85;77.95
53484;BME280;75581;50.088;19.966;2024-03-02T07:00:27;98624.66;;;6.86;77.92
53484;BME280;75581;50.088;19.966;2024-03-02T07:02:56;98621.19;;;6.88;77.92
53484;BME280;75581;50.088;19.966;2024-03-02T07:05:25;98625.92;;;6.91;77.96
53484;BME280;75581;50.088;19.966;2024-03-02T07:07:54;98633.25;;;6.94;78.07
53484;BME280;75581;50.088;19.966;2024-03-02T07:10:23;98636.58;;;7.00;78.16
53484;BME280;75581;50.088;19.966;2024-03-02T07:12:52;98641.06;;;7.09;78.24
53484;BME280;75581;50.088;19.966;2024-03-02T07:15:21;98633.09;;;7.17;78.22
53484;BME280;75581;50.088;19.966;2024-03-02T07:18:07;98625.27;;;7.25;78.02
53484;BME280;75581;50.088;19.966;2024-03-02T07:20:36;98628.90;;;7.31;77.94
53484;BME280;75581;50.088;19.966;2024-03-02T07:23:07;98632.64;;;7.35;77.88
53484;BME280;75581;50.088;19.966;2024-03-02T07:25:36;98636.13;;;7.42;77.94
53484;BME280;75581;50.088;19.966;2024-03-02T07:28:08;98640.64;;;7.51;77.96
53484;BME280;75581;50.088;19.966;2024-03-02T07:30:37;98646.30;;;7.60;78.01
53484;BME280;75581;50.088;19.966;2024-03-02T07:33:07;98646.11;;;7.70;77.89
53484;BME280;75581;50.088;19.966;2024-03-02T07:35:36;98646.69;;;7.80;77.73
53484;BME280;75581;50.088;19.966;2024-03-02T07:38:06;98655.92;;;7.89;77.60
53484;BME280;75581;50.088;19.966;2024-03-02T07:40:35;98652.42;;;7.96;77.41
53484;BME280;75581;50.088;19.966;2024-03-02T07:43:04;98649.83;;;8.04;77.23
53484;BME280;75581;50.088;19.966;2024-03-02T07:45:33;98649.38;;;8.10;77.04
53484;BME280;75581;50.088;19.966;2024-03-02T07:48:02;98652.36;;;8.16;76.87
53484;BME280;75581;50.088;19.966;2024-03-02T07:50:34;98650.67;;;8.23;76.78
53484;BME280;75581;50.088;19.966;2024-03-02T07:53:03;98654.95;;;8.28;76.57
53484;BME280;75581;50.088;19.966;2024-03-02T07:55:32;98656.16;;;8.34;76.48
53484;BME280;75581;50.088;19.966;2024-03-02T07:58:01;98657.25;;;8.38;76.29
53484;BME280;75581;50.088;19.966;2024-03-02T08:00:30;98660.59;;;8.40;76.19
53484;BME280;75581;50.088;19.966;2024-03-02T08:03:00;98664.61;;;8.43;76.14
53484;BME280;75581;50.088;19.966;2024-03-02T08:05:29;98665.37;;;8.46;76.14
53484;BME280;75581;50.088;19.966;2024-03-02T08:07:58;98664.47;;;8.50;76.11
53484;BME280;75581;50.088;19.966;2024-03-02T08:10:27;98660.83;;;8.55;76.09
53484;BME280;75581;50.088;19.966;2024-03-02T08:12:56;98661.44;;;8.57;75.79
53484;BME280;75581;50.088;19.966;2024-03-02T08:15:25;98664.23;;;8.60;75.81
53484;BME280;75581;50.088;19.966;2024-03-02T08:17:54;98661.92;;;8.63;75.73
53484;BME280;75581;50.088;19.966;2024-03-02T08:20:25;98659.95;;;8.66;75.68
53484;BME280;75581;50.088;19.966;2024-03-02T08:22:54;98663.93;;;8.67;75.49
53484;BME280;75581;50.088;19.966;2024-03-02T08:25:23;98662.81;;;8.69;75.51
53484;BME280;75581;50.088;19.966;2024-03-02T08:27:52;98662.65;;;8.70;75.28
53484;BME280;75581;50.088;19.966;2024-03-02T08:30:21;98654.89;;;8.66;75.07
53484;BME280;75581;50.088;19.966;2024-03-02T08:32:51;98657.04;;;8.65;75.18
53484;BME280;75581;50.088;19.966;2024-03-02T08:35:21;98663.98;;;8.68;75.30
53484;BME280;75581;50.088;19.966;2024-03-02T08:37:52;98664.97;;;8.73;75.50
53484;BME280;75581;50.088;19.966;2024-03-02T08:40:21;98659.77;;;8.77;75.29
53484;BME280;75581;50.088;19.966;2024-03-02T08:42:50;98666.88;;;8.81;75.31
53484;BME280;75581;50.088;19.966;2024-03-02T08:45:20;98669.27;;;8.84;75.20
53484;BME280;75581;50.088;19.966;2024-03-02T08:47:49;98672.70;;;8.88;75.32
53484;BME280;75581;50.088;19.966;2024-03-02T08:50:18;98673.25;;;8.93;75.12
53484;BME280;75581;50.088;19.966;2024-03-02T08:52:47;98670.50;;;8.90;74.73
53484;BME280;75581;50.088;19.966;2024-03-02T08:55:16;98673.83;;;8.85;74.75
53484;BME280;75581;50.088;19.966;2024-03-02T08:57:46;98677.10;;;8.87;75.08
53484;BME280;75581;50.088;19.966;2024-03-02T09:00:15;98679.71;;;8.93;75.04
53484;BME280;75581;50.088;19.966;2024-03-02T09:02:45;98677.87;;;8.91;74.74
53484;BME280;75581;50.088;19.966;2024-03-02T09:05:15;98683.57;;;8.89;74.82
53484;BME280;75581;50.088;19.966;2024-03-02T09:07:44;98684.48;;;8.87;74.76
53484;BME280;75581;50.088;19.966;2024-03-02T09:10:13;98678.62;;;8.87;74.94
53484;BME280;75581;50.088;19.966;2024-03-02T09:12:43;98682.06;;;8.88;74.87
53484;BME280;75581;50.088;19.966;2024-03-02T09:15:12;98686.05;;;8.88;74.96
53484;BME280;75581;50.088;19.966;2024-03-02T09:17:41;98684.60;;;8.91;75.02
53484;BME280;75581;50.088;19.966;2024-03-02T09:20:11;98682.84;;;8.94;75.01
53484;BME280;75581;50.088;19.966;2024-03-02T09:22:40;98686.27;;;8.97;75.01
53484;BME280;75581;50.088;19.966;2024-03-02T09:25:10;98690.27;;;9.01;74.99
53484;BME280;75581;50.088;19.966;2024-03-02T09:27:39;98690.11;;;9.04;75.06
53484;BME280;75581;50.088;19.966;2024-03-02T09:30:08;98694.00;;;9.09;75.09
53484;BME280;75581;50.088;19.966;2024-03-02T09:32:38;98695.18;;;9.14;74.94
53484;BME280;75581;50.088;19.966;2024-03-02T09:35:08;98697.72;;;9.15;74.74
53484;BME280;75581;50.088;19.966;2024-03-02T09:37:40;98702.14;;;9.15;74.67
53484;BME280;75581;50.088;19.966;2024-03-02T09:40:11;98703.38;;;9.15;74.71
53484;BME280;75581;50.088;19.966;2024-03-02T09:42:41;98706.72;;;9.18;74.68
53484;BME280;75581;50.088;19.966;2024-03-02T09:45:10;98710.17;;;9.18;74.74
53484;BME280;75581;50.088;19.966;2024-03-02T09:47:39;98715.44;;;9.22;74.86
53484;BME280;75581;50.088;19.966;2024-03-02T09:50:08;98716.04;;;9.26;74.78
53484;BME280;75581;50.088;19.966;2024-03-02T09:52:38;98716.42;;;9.29;74.60
53484;BME280;75581;50.088;19.966;2024-03-02T09:55:08;98717.66;;;9.31;74.62
53484;BME280;75581;50.088;19.966;2024-03-02T09:57:37;98716.76;;;9.33;74.68
53484;BME280;75581;50.088;19.966;2024-03-02T10:00:09;98716.55;;;9.35;74.63
53484;BME280;75581;50.088;19.966;2024-03-02T10:02:44;98717.73;;;9.39;74.58
53484;BME280;75581;50.088;19.966;2024-03-02T10:05:12;98716.70;;;9.42;74.59
53484;BME280;75581;50.088;19.966;2024-03-02T10:07:41;98717.30;;;9.47;74.63
53484;BME280;75581;50.088;19.966;2024-03-02T10:10:14;98718.97;;;9.55;74.90
53484;BME280;75581;50.088;19.966;2024-03-02T10:12:43;98718.91;;;9.65;74.97
53484;BME280;75581;50.088;19.966;2024-03-02T10:15:12;98718.54;;;9.75;74.93
53484;BME280;75581;50.088;19.966;2024-03-02T10:17:41;98713.30;;;9.83;74.59
53484;BME280;75581;50.088;19.966;2024-03-02T10:20:26;98709.30;;;9.92;74.62
53484;BME280;75581;50.088;19.966;2024-03-02T10:23:12;98711.77;;;10.04;74.50
53484;BME280;75581;50.088;19.966;2024-03-02T10:25:42;98709.92;;;10.13;74.16
53484;BME280;75581;50.088;19.966;2024-03-02T10:28:25;98710.34;;;10.21;74.05
53484;BME280;75581;50.088;19.966;2024-03-02T10:30:57;98709.89;;;10.30;73.91
53484;BME280;75581;50.088;19.966;2024-03-02T10:33:27;98709.14;;;10.35;73.29
53484;BME280;75581;50.088;19.966;2024-03-02T10:35:57;98707.64;;;10.34;73.15
53484;BME280;75581;50.088;19.966;2024-03-02T10:38:26;98706.75;;;10.38;73.13
53484;BME280;75581;50.088;19.966;2024-03-02T10:40:56;98704.42;;;10.39;72.93
53484;BME280;75581;50.088;19.966;2024-03-02T10:43:28;98700.48;;;10.41;72.86
53484;BME280;75581;50.088;19.966;2024-03-02T10:45:58;98697.55;;;10.47;72.83
53484;BME280;75581;50.088;19.966;2024-03-02T10:48:27;98697.02;;;10.51;72.75
53484;BME280;75581;50.088;19.966;2024-03-02T10:50:56;98694.70;;;10.59;72.83
53484;BME280;75581;50.088;19.966;2024-03-02T10:53:30;98692.02;;;10.64;72.54
53484;BME280;75581;50.088;19.966;2024-03-02T10:55:59;98691.32;;;10.67;72.18
53484;BME280;75581;50.088;19.966;2024-03-02T10:58:35;98692.21;;;10.73;72.25
53484;BME280;75581;50.088;19.966;2024-03-02T11:01:05;98683.63;;;10.82;72.40
53484;BME280;75581;50.088;19.966;2024-03-02T11:03:36;98682.34;;;10.91;72.30
53484;BME280;75581;50.088;19.966;2024-03-02T11:06:08;98682.95;;;10.96;71.88
53484;BME280;75581;50.088;19.966;2024-03-02T11:08:40;98680.10;;;10.98;71.80
53484;BME280;75581;50.088;19.966;2024-03-02T11:11:15;98679.24;;;11.02;71.65
53484;BME280;75581;50.088;19.966;2024-03-02T11:13:49;98678.11;;;11.02;71.52
53484;BME280;75581;50.088;19.966;2024-03-02T11:16:32;98675.20;;;11.05;71.32
53484;BME280;75581;50.088;19.966;2024-03-02T11:19:07;98679.66;;;11.14;71.77
53484;BME280;75581;50.088;19.966;2024-03-02T11:21:40;98679.94;;;11.28;71.78
53484;BME280;75581;50.088;19.966;2024-03-02T11:24:30;98674.29;;;11.39;71.54
53484;BME280;75581;50.088;19.966;2024-03-02T11:27:06;98672.08;;;11.41;70.74
53484;BME280;75581;50.088;19.966;2024-03-02T11:34:45;98671.73;;;11.57;70.80
53484;BME280;75581;50.088;19.966;2024-03-02T11:37:19;98672.51;;;11.66;70.68
53484;BME280;75581;50.088;19.966;2024-03-02T11:39:51;98675.27;;;11.70;70.33
53484;BME280;75581;50.088;19.966;2024-03-02T11:42:20;98669.91;;;11.72;70.28
53484;BME280;75581;50.088;19.966;2024-03-02T11:44:49;98668.37;;;11.74;70.37
53484;BME280;75581;50.088;19.966;2024-03-02T11:47:19;98663.29;;;11.81;70.26
53484;BME280;75581;50.088;19.966;2024-03-02T11:49:50;98662.52;;;11.84;69.92
53484;BME280;75581;50.088;19.966;2024-03-02T11:52:20;98659.27;;;11.84;69.82
53484;BME280;75581;50.088;19.966;2024-03-02T11:54:51;98653.23;;;11.88;69.80
53484;BME280;75581;50.088;19.966;2024-03-02T11:57:21;98658.34;;;11.90;69.64
53484;BME280;75581;50.088;19.966;2024-03-02T11:59:54;98653.29;;;11.95;69.78
53484;BME280;75581;50.088;19.966;2024-03-02T12:02:26;98656.98;;;12.03;69.81
53484;BME280;75581;50.088;19.966;2024-03-02T12:04:56;98655.05;;;12.08;69.60
53484;BME280;75581;50.088;19.966;2024-03-02T12:07:26;98651.45;;;12.11;69.36
53484;BME280;75581;50.088;19.966;2024-03-02T12:10:02;98655.73;;;12.09;69.07
53484;BME280;75581;50.088;19.966;2024-03-02T12:12:32;98657.47;;;12.08;69.15
53484;BME280;75581;50.088;19.966;2024-03-02T12:15:00;98653.75;;;12.13;69.47
53484;BME280;75581;50.088;19.966;2024-03-02T12:17:29;98650.80;;;12.20;69.49
53484;BME280;75581;50.088;19.966;2024-03-02T12:19:59;98650.58;;;12.25;69.31
53484;BME280;75581;50.088;19.966;2024-03-02T12:22:28;98658.16;;;12.30;69.25
53484;BME280;75581;50.088;19.966;2024-03-02T12:24:57;98654.48;;;12.34;69.29
53484;BME280;75581;50.088;19.966;2024-03-02T12:27:27;98660.27;;;12.37;69.11
53484;BME280;75581;50.088;19.966;2024-03-02T12:29:55;98657.29;;;12.39;68.91
53484;BME280;75581;50.088;19.966;2024-03-02T12:32:24;98651.66;;;12.44;68.89
53484;BME280;75581;50.088;19.966;2024-03-02T12:34:54;98654.66;;;12.50;68.89
53484;BME280;75581;50.088;19.966;2024-03-02T12:37:23;98657.73;;;12.55;68.48
53484;BME280;75581;50.088;19.966;2024-03-02T12:39:52;98652.24;;;12.52;67.98
53484;BME280;75581;50.088;19.966;2024-03-02T12:42:24;98659.27;;;12.50;67.98
53484;BME280;75581;50.088;19.966;2024-03-02T12:44:53;98659.20;;;12.50;67.93
53484;BME280;75581;50.088;19.966;2024-03-02T12:47:25;98655.94;;;12.52;67.97
53484;BME280;75581;50.088;19.966;2024-03-02T12:49:54;98650.04;;;12.52;67.76
53484;BME280;75581;50.088;19.966;2024-03-02T12:52:24;98647.20;;;12.53;67.85
53484;BME280;75581;50.088;19.966;2024-03-02T12:54:54;98645.48;;;12.52;67.64
53484;BME280;75581;50.088;19.966;2024-03-02T12:57:27;98640.92;;;12.49;67.57
53484;BME280;75581;50.088;19.966;2024-03-02T13:00:05;98636.87;;;12.49;67.66
53484;BME280;75581;50.088;19.966;2024-03-02T13:02:40;98639.86;;;12.47;67.74
53484;BME280;75581;50.088;19.966;2024-03-02T13:05:09;98642.60;;;12.54;68.09
53484;BME280;75581;50.088;19.966;2024-03-02T13:07:40;98638.44;;;12.62;68.00
53484;BME280;75581;50.088;19.966;2024-03-02T13:10:13;98641.74;;;12.65;67.60
53484;BME280;75581;50.088;19.966;2024-03-02T13:12:42;98642.14;;;12.64;67.36
53484;BME280;75581;50.088;19.966;2024-03-02T13:15:12;98644.98;;;12.69;67.64
53484;BME280;75581;50.088;19.966;2024-03-02T13:17:45;98642.80;;;12.75;67.40